Time;durP1;ratioP1;P1;durP2;ratioP2;P2;SDS_P1;SDS_P2;PMS_P1;PMS_P2;Temp;Humidity;BMP_temperature;BMP_pressure;BME280_temperature;BME280_humidity;BME280_pressure;Samples;Min_cycle;Max_cycle;Signal;HPM_P1;HPM_P2
2022/10/23 00:01:31;;;;;;;16.40;3.55;;;15.20;99.90;;;;;;4969481;28;20042;-71
2022/10/23 00:04:03;;;;;;;13.48;3.15;;;15.20;99.90;;;;;;4964849;28;20550;-70
2022/10/23 00:06:30;;;;;;;16.70;3.35;;;15.20;99.90;;;;;;4968594;28;20035;-71
2022/10/23 00:08:56;;;;;;;14.05;3.53;;;15.20;99.90;;;;;;4968772;28;20054;-71
2022/10/23 00:11:24;;;;;;;13.02;3.58;;;15.20;99.90;;;;;;4982712;28;20043;-71
2022/10/23 00:13:53;;;;;;;13.05;3.50;;;15.20;99.90;;;;;;4968441;28;20041;-71
2022/10/23 00:16:18;;;;;;;13.98;3.20;;;15.20;99.90;;;;;;4968770;28;20030;-70
2022/10/23 00:18:44;;;;;;;15.82;3.88;;;15.20;99.90;;;;;;4979063;28;20464;-71
2022/10/23 00:21:13;;;;;;;15.23;4.15;;;15.20;99.90;;;;;;4967804;28;20618;-71
2022/10/23 00:23:39;;;;;;;17.75;3.80;;;15.30;99.90;;;;;;4970175;28;20038;-71
2022/10/23 00:26:06;;;;;;;11.63;3.50;;;15.20;99.90;;;;;;4968415;28;20035;-71
2022/10/23 00:28:32;;;;;;;12.52;2.88;;;15.30;99.90;;;;;;4968070;28;20035;-71
2022/10/23 00:31:02;;;;;;;10.85;3.13;;;15.20;99.90;;;;;;4968567;28;20382;-71
2022/10/23 00:33:27;;;;;;;11.98;4.15;;;15.20;99.90;;;;;;4969117;28;20061;-71
2022/10/23 00:35:53;;;;;;;9.13;3.65;;;15.20;99.90;;;;;;4968690;28;20476;-71
2022/10/23 00:38:18;;;;;;;18.33;4.57;;;15.20;99.90;;;;;;4950207;28;20178;-71
2022/10/23 00:40:45;;;;;;;12.32;3.83;;;15.20;99.90;;;;;;4967910;28;20050;-71
2022/10/23 00:43:23;;;;;;;16.52;4.40;;;15.20;99.90;;;;;;4968918;28;20027;-71
2022/10/23 00:45:49;;;;;;;12.55;5.57;;;15.20;99.90;;;;;;4968396;28;20049;-71
2022/10/23 00:48:15;;;;;;;14.93;4.70;;;15.20;99.90;;;;;;4967747;28;20042;-71
2022/10/23 00:50:42;;;;;;;19.90;6.03;;;15.20;99.90;;;;;;4968268;28;20038;-71
2022/10/23 00:53:10;;;;;;;14.73;4.65;;;15.20;99.90;;;;;;4968781;28;20034;-71
2022/10/23 00:55:37;;;;;;;19.23;4.65;;;15.20;99.90;;;;;;4968057;28;20066;-72
2022/10/23 00:58:03;;;;;;;15.43;4.10;;;15.30;99.90;;;;;;4967359;28;20392;-71
2022/10/23 01:00:40;;;;;;;16.42;4.55;;;15.30;99.90;;;;;;4969003;28;20037;-71
2022/10/23 01:03:05;;;;;;;13.38;4.38;;;15.20;99.90;;;;;;4969400;28;20050;-71
2022/10/23 01:05:39;;;;;;;10.80;3.75;;;15.20;99.90;;;;;;4968412;28;20035;-71
2022/10/23 01:08:14;;;;;;;19.48;4.80;;;15.20;99.90;;;;;;4951677;28;20134;-71
2022/10/23 01:10:50;;;;;;;13.27;3.65;;;15.20;99.90;;;;;;4955267;28;20049;-71
2022/10/23 01:13:28;;;;;;;11.77;3.35;;;15.30;99.90;;;;;;4969212;28;20498;-71
2022/10/23 01:16:19;;;;;;;13.90;4.18;;;15.20;99.90;;;;;;4968388;28;20058;-71
2022/10/23 01:18:59;;;;;;;14.57;4.80;;;15.20;99.90;;;;;;4962543;28;20386;-71
2022/10/23 01:21:37;;;;;;;16.27;3.90;;;15.20;99.90;;;;;;4951856;28;20079;-71
2022/10/23 01:24:11;;;;;;;11.88;4.22;;;15.20;99.90;;;;;;4967958;28;20085;-71
2022/10/23 01:26:54;;;;;;;17.92;4.55;;;15.20;99.90;;;;;;4969086;28;20062;-71
2022/10/23 01:29:52;;;;;;;14.80;4.28;;;15.20;99.90;;;;;;4970265;28;20122;-71
2022/10/23 01:32:46;;;;;;;13.00;4.03;;;15.20;99.90;;;;;;4956507;28;20051;-71
2022/10/23 01:35:36;;;;;;;12.25;3.60;;;15.20;99.90;;;;;;4953030;28;20042;-71
2022/10/23 01:38:08;;;;;;;;;;;15.20;99.90;;;;;;4958580;28;20089;-70
2022/10/23 01:40:42;;;;;;;12.63;3.88;;;15.20;99.90;;;;;;4965611;28;20365;-71
2022/10/23 01:43:15;;;;;;;14.70;4.07;;;15.30;99.90;;;;;;4966376;28;20034;-71
2022/10/23 01:45:55;;;;;;;11.98;3.30;;;15.20;99.90;;;;;;4967572;28;20073;-71
2022/10/23 01:48:26;;;;;;;19.25;3.90;;;15.30;99.90;;;;;;4966515;28;20031;-71
2022/10/23 01:50:55;;;;;;;11.45;3.40;;;15.20;99.90;;;;;;4968403;28;20045;-71
2022/10/23 01:53:22;;;;;;;13.98;3.70;;;15.30;99.90;;;;;;4957437;28;20038;-71
2022/10/23 01:55:49;;;;;;;15.38;3.80;;;15.20;99.90;;;;;;4968118;28;20042;-71
2022/10/23 01:58:16;;;;;;;9.88;3.47;;;15.20;99.90;;;;;;4968272;28;20031;-71
2022/10/23 02:00:44;;;;;;;13.13;3.35;;;15.30;99.90;;;;;;4966073;28;20053;-71
2022/10/23 02:03:12;;;;;;;11.48;3.03;;;15.20;99.90;;;;;;4967952;28;20038;-71
2022/10/23 02:05:38;;;;;;;10.40;2.95;;;15.20;99.90;;;;;;4968858;28;20066;-71
2022/10/23 02:08:04;;;;;;;12.75;3.08;;;15.30;99.90;;;;;;4968467;28;20391;-71
2022/10/23 02:10:40;;;;;;;10.75;2.58;;;15.30;99.90;;;;;;4953766;28;20054;-71
2022/10/23 02:13:20;;;;;;;12.00;2.75;;;15.30;99.90;;;;;;4956367;28;20027;-71
2022/10/23 02:15:49;;;;;;;8.75;2.25;;;15.30;99.90;;;;;;4971011;28;20098;-71
2022/10/23 02:18:18;;;;;;;10.88;2.63;;;15.30;99.90;;;;;;4971052;28;20096;-71
2022/10/23 02:20:59;;;;;;;13.48;2.80;;;15.30;99.90;;;;;;4971083;28;20043;-71
2022/10/23 02:23:32;;;;;;;12.70;2.65;;;15.30;99.90;;;;;;4964899;28;20039;-70
2022/10/23 02:26:05;;;;;;;10.98;2.80;;;15.30;99.90;;;;;;4970592;28;20065;-71
2022/10/23 02:28:39;;;;;;;10.05;2.50;;;15.30;99.90;;;;;;4971199;28;20039;-71
2022/10/23 02:31:08;;;;;;;8.23;2.30;;;15.40;99.90;;;;;;4963630;28;20524;-71
2022/10/23 02:33:35;;;;;;;11.38;2.63;;;15.40;99.90;;;;;;4971127;28;20039;-71
2022/10/23 02:36:01;;;;;;;13.05;2.75;;;15.40;99.90;;;;;;4966230;28;20046;-71
2022/10/23 02:38:41;;;;;;;12.68;2.90;;;15.40;99.90;;;;;;4970701;28;20523;-71
2022/10/23 02:41:41;;;;;;;13.15;2.80;;;15.50;99.90;;;;;;4953957;28;20038;-71
2022/10/23 02:44:12;;;;;;;11.13;2.55;;;15.50;99.90;;;;;;4963275;28;20035;-71
2022/10/23 02:47:06;;;;;;;10.48;2.40;;;15.50;99.90;;;;;;4953658;28;20070;-72
2022/10/23 02:49:41;;;;;;;9.25;2.70;;;15.40;99.90;;;;;;4967523;28;20043;-71
2022/10/23 02:52:13;;;;;;;11.95;2.78;;;15.40;99.90;;;;;;4967615;28;20037;-71
2022/10/23 02:54:54;;;;;;;9.55;2.40;;;15.40;99.90;;;;;;4968884;28;20039;-72
2022/10/23 02:57:32;;;;;;;8.82;2.65;;;15.50;99.90;;;;;;4970476;28;20087;-71
2022/10/23 03:00:11;;;;;;;11.65;2.67;;;15.50;99.90;;;;;;4970345;28;20085;-72
2022/10/23 03:02:43;;;;;;;;;;;15.50;99.90;;;;;;4964834;28;20033;-72
2022/10/23 03:05:14;;;;;;;9.80;2.78;;;15.50;99.90;;;;;;4968674;28;20455;-71
2022/10/23 03:07:40;;;;;;;9.45;2.28;;;15.50;99.90;;;;;;4970167;28;20058;-72
2022/10/23 03:10:07;;;;;;;15.15;2.70;;;15.50;99.90;;;;;;4971745;28;20777;-71
2022/10/23 03:12:33;;;;;;;10.35;2.72;;;15.50;99.90;;;;;;4969396;28;20044;-71
2022/10/23 03:14:59;;;;;;;8.95;2.45;;;15.50;99.90;;;;;;4952966;28;20034;-71
2022/10/23 03:17:25;;;;;;;13.57;2.50;;;15.60;99.90;;;;;;4969047;28;20121;-72
2022/10/23 03:19:50;;;;;;;9.90;2.50;;;15.60;99.90;;;;;;4967988;28;20038;-72
2022/10/23 03:22:16;;;;;;;13.35;2.60;;;15.60;99.90;;;;;;4969397;28;20027;-72
2022/10/23 03:24:42;;;;;;;8.68;2.75;;;15.60;99.90;;;;;;4969890;28;20492;-72
2022/10/23 03:27:10;;;;;;;14.20;3.38;;;15.60;99.90;;;;;;4968597;28;20034;-72
2022/10/23 03:29:36;;;;;;;11.65;2.90;;;15.60;99.90;;;;;;4967248;28;20123;-72
2022/10/23 03:32:01;;;;;;;9.52;3.20;;;15.60;99.90;;;;;;4968127;28;20038;-73
2022/10/23 03:34:27;;;;;;;8.38;2.30;;;15.60;99.90;;;;;;4970100;28;20034;-71
2022/10/23 03:36:53;;;;;;;11.15;2.70;;;15.60;99.90;;;;;;4970372;28;20152;-71
2022/10/23 03:39:18;;;;;;;12.90;3.03;;;15.60;99.90;;;;;;4968731;28;20058;-71
2022/10/23 03:41:44;;;;;;;7.35;2.17;;;15.60;99.90;;;;;;4969577;28;20030;-72
2022/10/23 03:44:09;;;;;;;9.45;2.28;;;15.60;99.90;;;;;;4969627;28;20054;-72
2022/10/23 03:46:35;;;;;;;10.52;3.08;;;15.60;99.90;;;;;;4971266;28;20042;-72
2022/10/23 03:49:00;;;;;;;9.82;2.42;;;15.70;99.90;;;;;;4971177;28;20185;-72
2022/10/23 03:51:26;;;;;;;11.45;2.17;;;15.70;99.90;;;;;;4969035;28;20489;-71
2022/10/23 03:53:52;;;;;;;9.52;2.13;;;15.70;99.90;;;;;;4951155;28;20038;-72
2022/10/23 03:56:17;;;;;;;7.90;2.53;;;15.70;99.90;;;;;;4969825;28;20509;-72
2022/10/23 03:58:43;;;;;;;16.85;3.47;;;15.60;99.90;;;;;;4970007;28;20049;-72
2022/10/23 04:01:09;;;;;;;9.07;2.65;;;15.70;99.90;;;;;;4969146;28;20074;-72
2022/10/23 04:03:34;;;;;;;13.02;2.83;;;15.70;99.90;;;;;;4970940;28;20044;-72
2022/10/23 04:06:00;;;;;;;12.07;2.70;;;15.70;99.90;;;;;;4968553;28;20039;-72
2022/10/23 04:08:25;;;;;;;10.82;2.38;;;15.60;99.90;;;;;;4969318;28;20043;-72
2022/10/23 04:10:51;;;;;;;10.90;2.78;;;15.60;99.90;;;;;;4971472;28;20054;-71
2022/10/23 04:13:16;;;;;;;10.13;2.40;;;15.70;99.90;;;;;;4969805;28;20062;-72
2022/10/23 04:15:50;;;;;;;11.15;2.42;;;15.70;99.90;;;;;;4969703;28;20421;-72
2022/10/23 04:18:15;;;;;;;9.13;2.72;;;15.70;99.90;;;;;;4969423;28;20125;-71
2022/10/23 04:20:41;;;;;;;9.95;2.35;;;15.70;99.90;;;;;;4969769;28;20114;-70
2022/10/23 04:23:07;;;;;;;12.88;2.53;;;15.80;99.90;;;;;;4984423;28;20038;-72
2022/10/23 04:25:32;;;;;;;5.95;2.00;;;15.80;99.90;;;;;;4972367;28;20190;-72
2022/10/23 04:27:58;;;;;;;10.45;2.53;;;15.80;99.90;;;;;;4969481;28;20031;-72
2022/10/23 04:30:24;;;;;;;9.38;2.13;;;15.80;99.90;;;;;;4969118;28;20047;-72
2022/10/23 04:32:50;;;;;;;11.07;2.63;;;15.80;99.90;;;;;;4969242;28;20500;-71
2022/10/23 04:35:17;;;;;;;8.45;2.20;;;15.80;99.90;;;;;;4968029;28;20093;-72
2022/10/23 04:37:42;;;;;;;8.48;2.00;;;15.90;99.90;;;;;;4967937;28;20062;-72
2022/10/23 04:40:08;;;;;;;11.80;2.33;;;15.90;99.90;;;;;;4969776;28;20035;-72
2022/10/23 04:42:34;;;;;;;10.80;2.55;;;15.90;99.90;;;;;;4969720;28;20041;-70
2022/10/23 04:44:59;;;;;;;10.02;2.30;;;15.90;99.90;;;;;;4969336;28;20037;-72
2022/10/23 04:47:25;;;;;;;10.27;2.28;;;15.90;99.90;;;;;;4969507;28;20047;-72
2022/10/23 04:49:51;;;;;;;7.97;2.40;;;16.00;99.90;;;;;;4969546;28;20467;-71
2022/10/23 04:52:16;;;;;;;9.60;2.53;;;16.00;99.90;;;;;;4969301;28;20038;-71
2022/10/23 04:54:42;;;;;;;10.50;2.17;;;16.00;99.90;;;;;;4969432;28;20058;-72
2022/10/23 04:57:08;;;;;;;11.60;2.13;;;16.00;99.90;;;;;;4968443;28;20036;-72
2022/10/23 04:59:33;;;;;;;9.32;2.60;;;16.00;99.90;;;;;;4954234;28;20042;-71
2022/10/23 05:01:59;;;;;;;6.47;2.00;;;16.00;99.90;;;;;;4969102;28;20054;-72
2022/10/23 05:04:25;;;;;;;6.68;1.90;;;16.00;99.90;;;;;;4969501;28;20045;-72
2022/10/23 05:06:50;;;;;;;8.10;2.20;;;16.00;99.90;;;;;;4967744;28;20430;-71
2022/10/23 05:09:16;;;;;;;10.50;2.15;;;16.00;99.90;;;;;;4950045;28;20074;-71
2022/10/23 05:11:41;;;;;;;8.73;2.13;;;16.10;99.90;;;;;;4969303;28;20105;-71
2022/10/23 05:14:07;;;;;;;11.77;2.42;;;16.20;99.90;;;;;;4969484;28;20034;-71
2022/10/23 05:16:45;;;;;;;8.30;2.10;;;16.20;99.90;;;;;;4968861;28;20065;-71
2022/10/23 05:19:16;;;;;;;13.45;2.50;;;16.30;99.90;;;;;;4969294;28;20118;-72
2022/10/23 05:21:43;;;;;;;11.75;2.50;;;16.30;99.90;;;;;;4968823;28;20038;-72
2022/10/23 05:24:10;;;;;;;12.15;2.53;;;16.30;99.90;;;;;;4969088;28;20023;-72
2022/10/23 05:26:35;;;;;;;11.70;2.30;;;16.30;99.90;;;;;;4968932;28;20082;-72
2022/10/23 05:29:01;;;;;;;12.38;2.50;;;16.30;99.90;;;;;;4969187;28;20062;-73
2022/10/23 05:31:27;;;;;;;10.40;1.98;;;16.30;99.90;;;;;;4968734;28;20038;-73
2022/10/23 05:33:54;;;;;;;11.75;1.90;;;16.40;99.90;;;;;;4969168;28;20062;-71
2022/10/23 05:36:21;;;;;;;10.07;2.53;;;16.40;99.90;;;;;;4968809;28;20042;-72
2022/10/23 05:38:47;;;;;;;9.50;2.10;;;16.40;99.90;;;;;;4968426;28;20050;-72
2022/10/23 05:41:13;;;;;;;13.68;2.53;;;16.40;99.90;;;;;;4962903;28;20510;-72
2022/10/23 05:43:38;;;;;;;7.57;2.17;;;16.40;99.90;;;;;;4969104;28;20508;-72
2022/10/23 05:46:05;;;;;;;12.05;2.30;;;16.40;99.90;;;;;;4972217;28;20039;-72
2022/10/23 05:48:34;;;;;;;10.38;2.13;;;16.40;99.90;;;;;;4960542;28;20041;-73
2022/10/23 05:51:07;;;;;;;9.05;2.15;;;16.40;99.90;;;;;;4966796;28;20043;-72
2022/10/23 05:53:33;;;;;;;8.23;2.30;;;16.40;99.90;;;;;;4971034;28;20031;-72
2022/10/23 05:56:06;;;;;;;8.93;2.58;;;16.40;99.90;;;;;;4971734;28;20045;-72
2022/10/23 05:58:33;;;;;;;11.05;2.50;;;16.50;99.90;;;;;;4971177;28;20054;-72
2022/10/23 06:00:59;;;;;;;11.65;3.00;;;16.40;99.90;;;;;;4962501;28;20042;-74
2022/10/23 06:03:24;;;;;;;9.63;2.45;;;16.20;99.90;;;;;;4971004;28;20062;-73
2022/10/23 06:05:51;;;;;;;11.90;2.80;;;16.10;99.90;;;;;;4968419;28;20093;-74
2022/10/23 06:08:17;;;;;;;9.68;2.53;;;16.00;99.90;;;;;;4970871;28;20639;-71
2022/10/23 06:10:43;;;;;;;9.57;2.50;;;15.90;99.90;;;;;;4971716;28;20125;-72
2022/10/23 06:13:08;;;;;;;12.35;2.67;;;15.90;99.90;;;;;;4971155;28;20437;-72
2022/10/23 06:15:34;;;;;;;14.40;2.55;;;15.90;99.90;;;;;;4969805;28;20476;-73
2022/10/23 06:18:03;;;;;;;10.63;2.85;;;15.90;99.90;;;;;;4968805;28;20062;-73
2022/10/23 06:20:29;;;;;;;9.00;3.15;;;15.80;99.90;;;;;;4966896;28;20027;-72
2022/10/23 06:22:55;;;;;;;8.75;3.08;;;15.80;99.90;;;;;;4970526;28;20039;-72
2022/10/23 06:25:20;;;;;;;12.65;3.60;;;15.80;99.90;;;;;;4969577;28;20533;-71
2022/10/23 06:27:46;;;;;;;10.80;2.67;;;15.70;99.90;;;;;;4951122;28;20054;-72
2022/10/23 06:30:12;;;;;;;12.15;3.38;;;15.70;99.90;;;;;;4969511;28;20043;-71
2022/10/23 06:32:38;;;;;;;11.85;3.00;;;15.70;99.90;;;;;;4964733;28;20034;-72
2022/10/23 06:35:04;;;;;;;8.57;2.78;;;15.60;99.90;;;;;;4972571;28;20061;-73
2022/10/23 06:37:32;;;;;;;13.95;3.30;;;15.60;99.90;;;;;;4967478;28;20125;-73
2022/10/23 06:39:58;;;;;;;11.43;2.60;;;15.70;99.90;;;;;;4970473;28;20498;-73
2022/10/23 06:42:24;;;;;;;9.80;3.03;;;15.70;99.90;;;;;;4971145;28;20065;-72
2022/10/23 06:44:49;;;;;;;12.32;2.92;;;15.70;99.90;;;;;;4978969;28;20030;-73
2022/10/23 06:47:15;;;;;;;12.77;3.17;;;15.70;99.90;;;;;;4970393;28;20118;-73
2022/10/23 06:49:41;;;;;;;11.88;2.78;;;15.70;99.90;;;;;;4979110;28;20046;-72
2022/10/23 06:52:06;;;;;;;11.48;2.90;;;15.70;99.90;;;;;;4970105;28;20034;-72
2022/10/23 06:54:32;;;;;;;9.35;2.65;;;15.80;99.90;;;;;;4966732;28;20397;-72
2022/10/23 06:56:58;;;;;;;9.60;2.75;;;15.80;99.90;;;;;;4963963;28;20042;-73
2022/10/23 06:59:23;;;;;;;8.32;2.60;;;15.80;99.90;;;;;;4964891;28;20034;-72
2022/10/23 07:01:49;;;;;;;12.60;3.10;;;15.80;99.90;;;;;;4965214;28;20114;-72
2022/10/23 07:04:15;;;;;;;11.63;2.78;;;15.80;99.90;;;;;;4973480;28;20087;-74
2022/10/23 07:06:42;;;;;;;8.93;2.25;;;15.90;99.90;;;;;;4951037;28;20035;-72
2022/10/23 07:09:07;;;;;;;8.52;2.67;;;15.90;99.90;;;;;;4962407;28;20022;-73
2022/10/23 07:11:33;;;;;;;13.40;3.38;;;15.90;99.90;;;;;;4955869;28;20039;-72
2022/10/23 07:13:59;;;;;;;12.55;2.78;;;15.90;99.90;;;;;;4964888;28;20086;-71
2022/10/23 07:16:24;;;;;;;15.30;2.80;;;15.80;99.90;;;;;;4961877;28;20121;-73
2022/10/23 07:18:59;;;;;;;7.97;3.13;;;15.80;99.90;;;;;;4966120;28;20054;-72
2022/10/23 07:21:30;;;;;;;12.27;3.17;;;15.80;99.90;;;;;;4963521;28;20191;-72
2022/10/23 07:23:57;;;;;;;11.20;3.35;;;15.80;99.90;;;;;;4963474;28;20035;-73
2022/10/23 07:26:23;;;;;;;10.68;3.15;;;15.80;99.90;;;;;;4968367;28;20038;-72
2022/10/23 07:28:53;;;;;;;10.60;3.42;;;15.80;99.90;;;;;;4968672;28;20089;-72
2022/10/23 07:31:20;;;;;;;11.45;2.92;;;15.90;99.90;;;;;;4966497;28;20064;-72
2022/10/23 07:33:46;;;;;;;16.42;3.38;;;15.90;99.90;;;;;;4967337;28;20117;-72
2022/10/23 07:36:11;;;;;;;14.52;3.45;;;16.00;99.90;;;;;;4970147;28;20114;-73
2022/10/23 07:38:37;;;;;;;11.40;3.10;;;16.00;99.90;;;;;;4948372;28;20069;-72
2022/10/23 07:41:03;;;;;;;12.10;3.38;;;16.00;99.90;;;;;;4964454;28;20092;-72
2022/10/23 07:43:29;;;;;;;13.25;3.20;;;16.10;99.90;;;;;;4965147;28;20469;-72
2022/10/23 07:45:55;;;;;;;9.55;2.88;;;16.10;99.90;;;;;;4964311;28;20037;-72
2022/10/23 07:48:22;;;;;;;10.52;2.78;;;16.10;99.90;;;;;;4966314;28;20035;-72
2022/10/23 07:50:48;;;;;;;9.23;3.10;;;16.20;99.90;;;;;;4966749;28;20039;-73
2022/10/23 07:53:22;;;;;;;12.88;3.00;;;16.20;99.90;;;;;;4967134;28;20038;-73
2022/10/23 07:55:58;;;;;;;9.93;3.08;;;16.20;99.90;;;;;;4965326;28;20593;-73
2022/10/23 07:58:25;;;;;;;14.70;2.78;;;16.30;99.90;;;;;;4954218;28;20493;-71
2022/10/23 08:00:57;;;;;;;13.40;2.70;;;16.40;99.90;;;;;;4967765;28;20061;-72
2022/10/23 08:03:27;;;;;;;8.52;2.30;;;16.40;99.90;;;;;;4967565;28;20038;-72
2022/10/23 08:05:53;;;;;;;11.05;2.92;;;16.40;99.90;;;;;;4964095;28;20024;-73
2022/10/23 08:08:20;;;;;;;8.82;2.45;;;16.40;99.90;;;;;;4966227;28;20042;-73
2022/10/23 08:10:47;;;;;;;13.13;2.90;;;16.50;99.90;;;;;;4965020;28;20027;-72
2022/10/23 08:13:13;;;;;;;11.77;3.00;;;16.50;99.90;;;;;;4968826;28;20062;-72
2022/10/23 08:15:40;;;;;;;11.73;2.90;;;16.50;99.90;;;;;;4966006;28;20065;-71
2022/10/23 08:18:06;;;;;;;10.98;2.53;;;16.50;99.90;;;;;;4968044;28;20081;-71
2022/10/23 08:20:33;;;;;;;12.02;2.10;;;16.50;99.90;;;;;;4950492;28;20042;-73
2022/10/23 08:22:58;;;;;;;9.57;2.38;;;16.40;99.90;;;;;;4966852;28;20038;-71
2022/10/23 08:25:24;;;;;;;11.88;2.00;;;16.20;99.90;;;;;;4961445;28;20546;-71
2022/10/23 08:27:50;;;;;;;12.48;2.25;;;16.10;99.90;;;;;;4965490;28;20026;-73
2022/10/23 08:30:15;;;;;;;11.30;2.53;;;15.90;99.90;;;;;;4964982;28;20481;-71
2022/10/23 08:32:41;;;;;;;13.68;3.30;;;15.80;99.90;;;;;;4964962;28;20482;-74
2022/10/23 08:35:07;;;;;;;14.73;3.25;;;15.70;99.90;;;;;;4968552;28;20034;-72
2022/10/23 08:37:32;;;;;;;16.05;3.72;;;15.80;99.90;;;;;;4964424;28;20101;-70
2022/10/23 08:39:58;;;;;;;17.52;3.08;;;15.70;99.90;;;;;;4967458;28;20093;-72
2022/10/23 08:42:25;;;;;;;14.15;2.72;;;15.70;99.90;;;;;;4967097;28;20067;-71
2022/10/23 08:44:56;;;;;;;11.82;3.22;;;15.70;99.90;;;;;;4967496;28;20033;-72
2022/10/23 08:47:36;;;;;;;11.18;2.45;;;15.60;99.90;;;;;;4966597;28;20062;-72
2022/10/23 08:50:11;;;;;;;7.25;1.98;;;15.50;99.90;;;;;;4968223;28;20043;-71
2022/10/23 08:52:52;;;;;;;13.90;3.33;;;15.50;99.90;;;;;;4968811;28;20069;-71
2022/10/23 08:55:34;;;;;;;16.63;3.00;;;15.50;99.90;;;;;;4972289;28;20042;-72
2022/10/23 08:58:06;;;;;;;19.88;4.28;;;15.40;99.90;;;;;;4965924;28;20042;-72
2022/10/23 09:00:32;;;;;;;22.20;4.50;;;15.50;99.90;;;;;;4965657;28;20031;-73
2022/10/23 09:03:01;;;;;;;18.15;4.07;;;15.50;99.90;;;;;;4967171;28;20030;-71
2022/10/23 09:05:35;;;;;;;20.48;4.15;;;15.60;99.90;;;;;;4969776;28;20085;-71
2022/10/23 09:08:07;;;;;;;22.83;4.05;;;15.60;99.90;;;;;;4965978;28;20629;-71
2022/10/23 09:10:55;;;;;;;17.92;3.90;;;15.60;99.90;;;;;;4968891;28;20120;-70
2022/10/23 09:13:48;;;;;;;24.02;4.65;;;15.70;99.90;;;;;;4962849;28;20086;-71
2022/10/23 09:16:17;;;;;;;21.50;4.63;;;15.70;99.90;;;;;;4968191;28;20037;-71
2022/10/23 09:18:47;;;;;;;22.38;4.22;;;15.80;99.90;;;;;;4965417;28;20026;-71
2022/10/23 09:21:12;;;;;;;19.83;5.22;;;15.90;99.90;;;;;;4964148;28;20053;-71
2022/10/23 09:23:38;;;;;;;22.83;7.38;;;16.00;99.90;;;;;;4971435;28;20035;-71
2022/10/23 09:26:13;;;;;;;14.20;3.20;;;16.00;99.90;;;;;;4969488;28;20060;-72
2022/10/23 09:28:51;;;;;;;24.65;4.20;;;16.10;99.90;;;;;;4970263;28;20038;-71
2022/10/23 09:31:18;;;;;;;16.85;3.35;;;16.20;99.90;;;;;;4964917;28;20101;-71
2022/10/23 09:34:18;;;;;;;15.27;2.58;;;16.20;99.90;;;;;;4962733;28;20110;-71
2022/10/23 09:36:56;;;;;;;14.60;3.35;;;16.30;99.90;;;;;;4955204;28;20038;-71
2022/10/23 09:39:33;;;;;;;23.15;3.55;;;16.40;99.90;;;;;;4970161;28;20235;-72
2022/10/23 09:42:03;;;;;;;25.58;4.30;;;16.40;99.90;;;;;;4972374;28;20023;-71
2022/10/23 09:44:32;;;;;;;18.25;3.42;;;16.30;99.90;;;;;;4954962;28;20132;-71
2022/10/23 09:47:12;;;;;;;18.60;3.17;;;16.30;99.90;;;;;;4972674;28;20070;-71
2022/10/23 09:49:45;;;;;;;16.58;3.00;;;16.30;99.90;;;;;;4972044;28;20049;-72
2022/10/23 09:52:10;;;;;;;16.38;3.35;;;16.30;99.90;;;;;;4972515;28;20042;-72
2022/10/23 09:54:43;;;;;;;19.23;3.20;;;16.30;99.90;;;;;;4972549;28;20078;-72
2022/10/23 09:57:41;;;;;;;17.02;3.80;;;16.30;99.90;;;;;;4972796;28;20081;-72
2022/10/23 10:00:13;;;;;;;15.57;3.63;;;16.30;99.90;;;;;;4972410;28;20092;-72
2022/10/23 10:02:53;;;;;;;18.67;3.50;;;16.20;99.90;;;;;;4972403;28;20053;-73
2022/10/23 10:05:23;;;;;;;16.77;3.08;;;16.30;99.90;;;;;;4972088;28;20038;-71
2022/10/23 10:08:13;;;;;;;16.42;3.20;;;16.30;99.90;;;;;;4971003;28;20598;-71
2022/10/23 10:10:48;;;;;;;19.33;4.22;;;16.30;99.90;;;;;;4970962;28;20042;-72
2022/10/23 10:13:32;;;;;;;15.25;4.18;;;16.20;99.90;;;;;;4971578;28;20027;-71
2022/10/23 10:16:28;;;;;;;18.70;3.10;;;16.30;99.90;;;;;;4971832;28;20042;-71
2022/10/23 10:19:06;;;;;;;14.50;2.95;;;16.30;99.90;;;;;;4955764;28;20449;-71
2022/10/23 10:21:47;;;;;;;13.23;2.53;;;16.30;99.90;;;;;;4971869;28;20719;-71
2022/10/23 10:24:22;;;;;;;17.17;3.15;;;16.40;99.90;;;;;;4972085;28;20030;-71
2022/10/23 10:27:24;;;;;;;11.20;2.70;;;16.50;99.90;;;;;;4972375;28;20031;-71
2022/10/23 10:30:09;;;;;;;16.98;3.25;;;16.50;99.90;;;;;;4971598;28;20038;-72
2022/10/23 10:32:45;;;;;;;16.10;3.33;;;16.50;99.90;;;;;;4971901;28;20042;-72
2022/10/23 10:35:51;;;;;;;21.65;3.95;;;16.70;99.90;;;;;;4972177;28;20387;-72
2022/10/23 10:38:43;;;;;;;25.25;3.58;;;16.80;99.90;;;;;;4954185;28;20420;-72
2022/10/23 10:41:28;;;;;;;16.75;4.20;;;16.80;99.90;;;;;;4972150;28;20026;-72
2022/10/23 10:44:31;;;;;;;18.33;3.70;;;16.90;99.90;;;;;;4971894;28;20031;-71
2022/10/23 10:47:25;;;;;;;14.73;3.28;;;16.90;99.90;;;;;;4971841;28;20031;-71
2022/10/23 10:49:51;;;;;;;18.73;3.65;;;16.90;99.90;;;;;;4970030;28;20544;-71
2022/10/23 10:52:19;;;;;;;25.60;4.07;;;16.90;99.90;;;;;;4971527;28;20497;-71
2022/10/23 10:55:12;;;;;;;14.13;3.08;;;16.90;99.90;;;;;;4960469;28;20061;-72
2022/10/23 10:57:45;;;;;;;18.67;3.83;;;17.10;99.90;;;;;;4991070;28;20081;-71
2022/10/23 11:00:20;;;;;;;15.27;3.03;;;17.50;99.90;;;;;;4990950;28;20465;-71
2022/10/23 11:02:54;;;;;;;17.02;3.10;;;17.70;99.90;;;;;;4990854;28;20080;-71
2022/10/23 11:05:41;;;;;;;8.65;2.10;;;17.90;99.90;;;;;;4991233;28;20034;-72
2022/10/23 11:08:14;;;;;;;11.30;2.30;;;17.80;99.90;;;;;;4990676;28;20042;-72
2022/10/23 11:10:44;;;;;;;10.93;2.72;;;17.90;99.90;;;;;;4990740;28;20050;-71
2022/10/23 11:13:27;;;;;;;8.30;2.00;;;17.80;99.90;;;;;;4973018;28;20452;-72
2022/10/23 11:16:02;;;;;;;9.27;1.90;;;17.70;99.90;;;;;;4982745;28;20084;-71
2022/10/23 11:18:29;;;;;;;9.35;1.90;;;17.70;99.90;;;;;;4970836;28;20030;-72
2022/10/23 11:21:16;;;;;;;9.52;2.08;;;17.80;99.90;;;;;;4970782;28;20041;-72
2022/10/23 11:24:07;;;;;;;8.90;2.25;;;17.70;99.90;;;;;;4971047;28;20034;-71
2022/10/23 11:27:10;;;;;;;8.07;1.88;;;17.60;99.90;;;;;;4959882;28;20071;-74
2022/10/23 11:29:56;;;;;;;9.45;2.08;;;17.40;99.90;;;;;;4970863;28;20248;-71
2022/10/23 11:32:30;;;;;;;9.93;2.42;;;17.30;99.90;;;;;;4970785;28;20121;-71
2022/10/23 11:35:39;;;;;;;12.73;2.20;;;17.40;99.90;;;;;;4970721;28;20452;-70
2022/10/23 11:38:17;;;;;;;8.18;1.98;;;17.60;99.90;;;;;;4910231;29;20258;-70
2022/10/23 11:40:50;;;;;;;13.40;2.67;;;18.00;99.90;;;;;;4909938;29;20633;-71
2022/10/23 11:43:32;;;;;;;9.93;2.00;;;18.30;99.90;;;;;;4910522;29;20044;-71
2022/10/23 11:45:58;;;;;;;12.60;2.90;;;18.50;99.90;;;;;;4910487;29;20032;-71
2022/10/23 11:48:43;;;;;;;8.90;1.92;;;18.60;99.90;;;;;;4910284;29;20677;-72
2022/10/23 11:51:33;;;;;;;9.05;1.85;;;18.60;99.90;;;;;;4894477;29;20063;-72
2022/10/23 11:54:26;;;;;;;8.77;2.47;;;18.40;99.90;;;;;;4910063;29;20036;-71
2022/10/23 11:57:06;;;;;;;9.68;2.13;;;18.40;99.90;;;;;;4906772;29;20127;-72
2022/10/23 11:59:53;;;;;;;9.27;2.38;;;18.40;99.90;;;;;;4904002;29;20040;-72
2022/10/23 12:02:51;;;;;;;8.73;1.90;;;18.30;99.90;;;;;;4909984;29;20063;-71
2022/10/23 12:05:40;;;;;;;10.02;2.10;;;18.20;99.90;;;;;;4859354;29;20522;-71
2022/10/23 12:08:18;;;;;;;9.73;2.17;;;18.10;99.90;;;;;;4910154;29;20040;-71
2022/10/23 12:10:46;;;;;;;8.65;2.53;;;18.10;99.90;;;;;;4910212;29;20048;-71
2022/10/23 12:13:43;;;;;;;9.93;2.83;;;17.90;99.90;;;;;;4910122;29;20539;-72
2022/10/23 12:16:09;;;;;;;9.55;2.42;;;17.80;99.90;;;;;;4969992;28;20038;-71
2022/10/23 12:18:52;;;;;;;10.40;2.47;;;17.80;99.90;;;;;;4970356;28;20081;-72
2022/10/23 12:21:27;;;;;;;10.85;2.65;;;17.80;99.90;;;;;;4952621;28;20043;-71
2022/10/23 12:24:43;;;;;;;10.32;2.47;;;17.90;99.90;;;;;;4970171;28;20114;-71
2022/10/23 12:27:51;;;;;;;7.03;2.22;;;17.90;99.90;;;;;;4952237;28;20073;-72
2022/10/23 12:30:30;;;;;;;11.20;2.60;;;17.90;99.90;;;;;;4969891;28;20042;-72
2022/10/23 12:32:59;;;;;;;9.43;2.70;;;18.00;99.90;;;;;;4970009;28;20030;-72
2022/10/23 12:35:46;;;;;;;8.35;2.50;;;18.00;99.90;;;;;;4969782;28;20027;-71
2022/10/23 12:38:20;;;;;;;10.10;2.65;;;18.10;99.90;;;;;;4952060;28;20453;-71
2022/10/23 12:40:52;;;;;;;10.60;2.80;;;18.10;99.90;;;;;;4969858;28;20047;-72
2022/10/23 12:43:30;;;;;;;9.85;2.83;;;18.10;99.90;;;;;;4969732;28;20042;-72
2022/10/23 12:46:20;;;;;;;7.72;2.67;;;18.20;99.90;;;;;;4969394;28;20497;-71
2022/10/23 12:48:51;;;;;;;10.73;2.70;;;18.30;99.90;;;;;;4970021;28;20035;-72
2022/10/23 12:51:23;;;;;;;11.32;2.50;;;18.40;99.90;;;;;;4969753;28;20126;-72
2022/10/23 12:53:49;;;;;;;14.80;3.15;;;18.50;99.90;;;;;;4971236;28;20551;-71
2022/10/23 12:56:16;;;;;;;11.15;3.05;;;18.60;99.90;;;;;;4969501;28;20035;-71
2022/10/23 12:59:01;;;;;;;7.65;3.05;;;18.60;99.90;;;;;;4969094;28;20504;-71
2022/10/23 13:01:28;;;;;;;7.82;2.92;;;18.80;99.90;;;;;;4969623;28;20137;-71
2022/10/23 13:04:15;;;;;;;8.68;2.78;;;18.80;99.90;;;;;;4969821;28;20030;-72
2022/10/23 13:06:42;;;;;;;8.88;2.42;;;18.80;99.90;;;;;;4969252;28;20030;-72